createdAt,value
2023-02-06T00:01:42.238Z,98512.10
2023-02-06T00:04:10.349Z,98512.63
2023-02-06T00:06:39.008Z,98510.59
2023-02-06T00:09:07.556Z,98506.36
2023-02-06T00:11:36.487Z,98503.13
2023-02-06T00:14:04.779Z,98502.95
2023-02-06T00:16:35.007Z,98503.30
2023-02-06T00:19:04.103Z,98504.14
2023-02-06T00:21:33.914Z,98503.97
2023-02-06T00:24:03.293Z,98507.73
2023-02-06T00:26:32.005Z,98509.09
2023-02-06T00:29:00.174Z,98510.48
2023-02-06T00:31:28.402Z,98512.86
2023-02-06T00:33:56.631Z,98513.88
2023-02-06T00:36:24.827Z,98514.58
2023-02-06T00:38:53.423Z,98513.58
2023-02-06T00:41:22.012Z,98512.22
2023-02-06T00:43:52.458Z,98507.63
2023-02-06T00:46:21.468Z,98512.40
2023-02-06T00:48:49.615Z,98510.35
2023-02-06T00:51:17.681Z,98511.72
2023-02-06T00:53:45.764Z,98512.40
2023-02-06T00:56:14.656Z,98513.10
2023-02-06T00:58:42.701Z,98510.89
2023-02-06T01:01:12.906Z,98513.80
2023-02-06T01:03:41.035Z,98514.13
2023-02-06T01:06:10.662Z,98515.84
2023-02-06T01:08:39.129Z,98513.29
2023-02-06T01:11:22.969Z,98514.48
2023-02-06T01:13:52.065Z,98514.65
2023-02-06T01:16:22.441Z,98515.67
2023-02-06T01:18:50.870Z,98509.39
2023-02-06T01:21:22.946Z,98511.95
2023-02-06T01:23:53.834Z,98514.66
2023-02-06T01:26:26.882Z,98519.41
2023-02-06T01:28:55.782Z,98521.63
2023-02-06T01:31:23.885Z,98521.31
2023-02-06T01:33:52.946Z,98524.55
2023-02-06T01:36:21.732Z,98529.14
2023-02-06T01:38:51.558Z,98537.12
2023-02-06T01:41:22.188Z,98543.42
2023-02-06T01:44:26.819Z,98543.27
2023-02-06T01:46:57.150Z,98548.54
2023-02-06T01:49:37.070Z,98550.23
2023-02-06T01:52:20.395Z,98544.96
2023-02-06T01:54:55.331Z,98548.04
2023-02-06T01:57:25.236Z,98541.27
2023-02-06T01:59:58.989Z,98547.38
2023-02-06T02:02:28.795Z,98546.71
2023-02-06T02:04:58.190Z,98550.97
2023-02-06T02:07:36.584Z,98550.65
2023-02-06T02:10:05.577Z,98550.82
2023-02-06T02:12:34.217Z,98546.39
2023-02-06T02:15:02.654Z,98548.09
2023-02-06T02:17:43.635Z,98552.00
2023-02-06T02:20:44.447Z,98551.33
2023-02-06T02:23:30.439Z,98544.69
2023-02-06T02:26:25.633Z,98542.65
2023-02-06T02:28:59.540Z,98547.09
2023-02-06T02:31:49.494Z,98547.09
2023-02-06T02:34:53.931Z,98545.55
2023-02-06T02:37:44.516Z,98547.77
2023-02-06T02:40:38.684Z,98545.41
2023-02-06T02:43:20.289Z,98553.23
2023-02-06T02:46:09.072Z,98556.63
2023-02-06T02:48:43.632Z,98561.39
2023-02-06T02:51:12.542Z,98562.58
2023-02-06T02:53:40.813Z,98567.01
2023-02-06T02:56:27.754Z,98569.05
2023-02-06T02:59:00.711Z,98570.58
2023-02-06T03:01:35.567Z,98567.85
2023-02-06T03:04:10.257Z,98571.09
2023-02-06T03:06:59.733Z,98568.90
2023-02-06T03:09:45.815Z,98575.20
2023-02-06T03:12:20.656Z,98577.07
2023-02-06T03:14:56.208Z,98575.37
2023-02-06T03:17:39.215Z,98577.23
2023-02-06T03:20:11.199Z,98570.95
2023-02-06T03:22:42.187Z,98574.68
2023-02-06T03:25:16.221Z,98577.06
2023-02-06T03:27:45.984Z,98579.10
2023-02-06T03:30:18.625Z,98581.99
2023-02-06T03:32:53.555Z,98588.13
2023-02-06T03:35:29.718Z,98584.04
2023-02-06T03:37:58.302Z,98585.58
2023-02-06T03:40:28.319Z,98587.43
2023-02-06T03:42:59.972Z,98590.33
2023-02-06T03:45:30.874Z,98593.91
2023-02-06T03:48:04.467Z,98593.73
2023-02-06T03:50:36.173Z,98592.54
2023-02-06T03:53:04.983Z,98588.96
2023-02-06T03:55:33.149Z,98588.29
2023-02-06T03:58:09.624Z,98589.33
2023-02-06T04:00:39.545Z,98586.94
2023-02-06T04:03:10.082Z,98594.75
2023-02-06T04:05:38.966Z,98594.92
2023-02-06T04:08:07.869Z,98596.64
2023-02-06T04:10:35.958Z,98599.02
2023-02-06T04:13:04.121Z,98597.83
2023-02-06T04:15:32.097Z,98596.98
2023-02-06T04:18:01.608Z,98595.46
2023-02-06T04:20:30.609Z,98592.73
2023-02-06T04:22:59.329Z,98591.89
2023-02-06T04:25:27.451Z,98595.63
2023-02-06T04:27:55.521Z,98595.97
2023-02-06T04:30:23.877Z,98589.52
2023-02-06T04:32:52.212Z,98589.51
2023-02-06T04:35:20.624Z,98591.55
2023-02-06T04:37:48.768Z,98587.81
2023-02-06T04:40:17.001Z,98590.20
2023-02-06T04:42:45.129Z,98588.66
2023-02-06T04:45:13.829Z,98588.30
2023-02-06T04:47:41.992Z,98590.70
2023-02-06T04:50:10.791Z,98583.90
2023-02-06T04:52:38.970Z,98585.08
2023-02-06T04:55:07.557Z,98589.00
2023-02-06T04:57:35.735Z,98588.32
2023-02-06T05:00:06.546Z,98587.30
2023-02-06T05:02:39.578Z,98587.33
2023-02-06T05:05:09.139Z,98586.14
2023-02-06T05:07:37.348Z,98585.63
2023-02-06T05:10:05.946Z,98587.33
2023-02-06T05:12:33.915Z,98584.09
2023-02-06T05:15:02.091Z,98591.23
2023-02-06T05:17:30.576Z,98590.21
2023-02-06T05:19:59.103Z,98585.11
2023-02-06T05:22:27.769Z,98589.02
2023-02-06T05:24:55.823Z,98587.83
2023-02-06T05:27:24.715Z,98587.31
2023-02-06T05:29:52.900Z,98589.52
2023-02-06T05:32:21.173Z,98593.77
2023-02-06T05:34:49.219Z,98592.60
2023-02-06T05:37:17.441Z,98595.83
2023-02-06T05:39:45.614Z,98594.47
2023-02-06T05:42:13.726Z,98592.26
2023-02-06T05:44:41.767Z,98588.34
2023-02-06T05:47:09.736Z,98591.56
2023-02-06T05:49:37.924Z,98593.45
2023-02-06T05:52:06.011Z,98591.94
2023-02-06T05:54:34.404Z,98591.27
2023-02-06T05:57:03.077Z,98589.23
2023-02-06T05:59:31.221Z,98587.90
2023-02-06T06:01:59.515Z,98585.36
2023-02-06T06:04:27.934Z,98589.62
2023-02-06T06:06:56.712Z,98591.34
2023-02-06T06:09:24.694Z,98593.55
2023-02-06T06:11:52.964Z,98591.69
2023-02-06T06:14:21.039Z,98595.08
2023-02-06T06:16:49.221Z,98597.80
2023-02-06T06:19:17.305Z,98599.16
2023-02-06T06:21:45.302Z,98601.04
2023-02-06T06:24:13.529Z,98606.64
2023-02-06T06:26:41.698Z,98607.33
2023-02-06T06:29:09.723Z,98609.70
2023-02-06T06:31:38.078Z,98608.67
2023-02-06T06:34:06.363Z,98606.14
2023-02-06T06:36:34.533Z,98606.30
2023-02-06T06:39:03.175Z,98605.29
2023-02-06T06:41:31.520Z,98604.75
2023-02-06T06:44:00.811Z,98606.61
2023-02-06T06:46:28.913Z,98603.05
2023-02-06T06:48:57.381Z,98601.17
2023-02-06T06:51:27.803Z,98599.98
2023-02-06T06:53:57.426Z,98598.46
2023-02-06T06:56:27.040Z,98601.69
2023-02-06T06:58:58.151Z,98609.17
2023-02-06T07:01:26.220Z,98605.41
2023-02-06T07:03:54.524Z,98608.98
2023-02-06T07:06:22.819Z,98611.00
2023-02-06T07:08:50.990Z,98618.48
2023-02-06T07:11:19.372Z,98617.45
2023-02-06T07:13:47.450Z,98621.17
2023-02-06T07:16:15.680Z,98624.08
2023-02-06T07:18:43.910Z,98628.15
2023-02-06T07:21:14.225Z,98632.55
2023-02-06T07:23:42.320Z,98635.77
2023-02-06T07:26:10.363Z,98636.30
2023-02-06T07:28:38.727Z,98634.10
2023-02-06T07:31:07.886Z,98634.44
2023-02-06T07:33:35.919Z,98637.16
2023-02-06T07:36:04.301Z,98638.86
2023-02-06T07:38:32.488Z,98642.95
2023-02-06T07:41:04.272Z,98648.56
2023-02-06T07:43:32.818Z,98651.11
2023-02-06T07:46:02.920Z,98655.20
2023-02-06T07:48:31.574Z,98653.33
2023-02-06T07:51:06.122Z,98649.76
2023-02-06T07:53:35.400Z,98650.95
2023-02-06T07:56:10.686Z,98646.02
2023-02-06T07:58:38.732Z,98640.73
2023-02-06T08:01:07.949Z,98637.33
2023-02-06T08:03:36.579Z,98638.19
2023-02-06T08:06:12.972Z,98639.01
2023-02-06T08:08:41.865Z,98641.89
2023-02-06T08:11:13.184Z,98647.66
2023-02-06T08:13:42.935Z,98648.85
2023-02-06T08:16:22.194Z,98647.30
2023-02-06T08:18:50.955Z,98651.89
2023-02-06T08:21:21.748Z,98650.02
2023-02-06T08:23:57.608Z,98647.98
2023-02-06T08:26:27.258Z,98654.75
2023-02-06T08:28:57.383Z,98651.52
2023-02-06T08:31:32.179Z,98656.29
2023-02-06T08:34:00.516Z,98661.39
2023-02-06T08:36:32.865Z,98662.75
2023-02-06T08:39:03.351Z,98664.28
2023-02-06T08:41:37.609Z,98662.76
2023-02-06T08:44:09.253Z,98665.13
2023-02-06T08:46:38.709Z,98667.34
2023-02-06T08:49:27.022Z,98668.70
2023-02-06T08:51:55.091Z,98669.23
2023-02-06T08:54:24.561Z,98671.79
2023-02-06T08:56:53.705Z,98676.89
2023-02-06T08:59:21.861Z,98680.95
2023-02-06T09:01:50.225Z,98674.52
2023-02-06T09:04:19.667Z,98673.00
2023-02-06T09:06:49.216Z,98672.31
2023-02-06T09:09:17.661Z,98672.52
2023-02-06T09:11:45.755Z,98673.70
2023-02-06T09:14:16.096Z,98668.43
2023-02-06T09:16:44.348Z,98665.22
2023-02-06T09:19:13.194Z,98660.45
2023-02-06T09:21:41.941Z,98658.76
2023-02-06T09:24:10.320Z,98660.48
2023-02-06T09:26:57.022Z,98659.80
2023-02-06T09:29:31.989Z,98669.31
2023-02-06T09:32:01.179Z,98673.55
2023-02-06T09:34:29.993Z,98668.46
2023-02-06T09:36:58.420Z,98668.98
2023-02-06T09:39:26.509Z,98667.42
2023-02-06T09:42:03.391Z,98671.00
2023-02-06T09:44:41.994Z,98669.99
2023-02-06T09:47:34.237Z,98672.89
2023-02-06T09:50:24.306Z,98672.35
2023-02-06T09:53:03.737Z,98669.46
2023-02-06T09:55:45.177Z,98670.82
2023-02-06T09:58:41.135Z,98669.29
2023-02-06T10:01:24.497Z,98662.66
2023-02-06T10:04:05.863Z,98662.16
2023-02-06T10:06:47.735Z,98655.84
2023-02-06T10:09:21.759Z,98654.98
2023-02-06T10:12:13.542Z,98653.46
2023-02-06T10:14:44.694Z,98650.40
2023-02-06T10:17:17.957Z,98650.74
2023-02-06T10:19:48.357Z,98649.89
2023-02-06T10:22:40.419Z,98652.78
2023-02-06T10:25:30.318Z,98650.91
2023-02-06T10:28:02.204Z,98653.79
2023-02-06T10:31:13.854Z,98653.27
2023-02-06T10:34:20.215Z,98652.77
2023-02-06T10:37:24.406Z,98645.62
2023-02-06T10:40:01.647Z,98647.14
2023-02-06T10:42:38.896Z,98651.38
2023-02-06T10:45:32.027Z,98650.70
2023-02-06T10:48:21.687Z,98650.88
2023-02-06T10:51:01.138Z,98646.80
2023-02-06T10:53:35.149Z,98648.99
2023-02-06T10:56:09.763Z,98646.45
2023-02-06T10:58:46.025Z,98643.89
2023-02-06T11:01:25.592Z,98638.28
2023-02-06T11:04:12.487Z,98642.37
2023-02-06T11:06:42.574Z,98638.29
2023-02-06T11:09:10.983Z,98638.96
2023-02-06T11:11:42.069Z,98641.35
2023-02-06T11:14:26.386Z,98637.77
2023-02-06T11:16:54.590Z,98638.80
2023-02-06T11:19:37.464Z,98639.48
2023-02-06T11:22:07.280Z,98644.39
2023-02-06T11:24:37.094Z,98642.67
2023-02-06T11:27:21.033Z,98642.85
2023-02-06T11:29:52.226Z,98641.30
2023-02-06T11:32:36.317Z,98640.27
2023-02-06T11:35:29.550Z,98638.74
2023-02-06T11:38:22.367Z,98638.58
2023-02-06T11:41:18.019Z,98638.40
2023-02-06T11:43:50.999Z,98637.52
2023-02-06T11:46:20.614Z,98631.41
2023-02-06T11:49:00.888Z,98633.95
2023-02-06T11:51:54.326Z,98632.08
2023-02-06T11:54:22.504Z,98629.51
2023-02-06T11:57:18.532Z,98631.21
2023-02-06T11:59:54.058Z,98627.81
2023-02-06T12:02:34.079Z,98623.89
2023-02-06T12:05:11.902Z,98621.86
2023-02-06T12:08:02.593Z,98615.88
2023-02-06T12:10:35.241Z,98610.42
2023-02-06T12:13:18.809Z,98609.58
2023-02-06T12:15:51.981Z,98606.00
2023-02-06T12:18:32.456Z,98610.41
2023-02-06T12:21:08.040Z,98610.91
2023-02-06T12:23:57.645Z,98614.98
2023-02-06T12:26:29.434Z,98612.60
2023-02-06T12:29:20.046Z,98612.41
2023-02-06T12:32:08.993Z,98611.04
2023-02-06T12:34:53.950Z,98604.74
2023-02-06T12:37:40.028Z,98605.05
2023-02-06T12:40:43.316Z,98604.86
2023-02-06T12:43:17.025Z,98600.60
2023-02-06T12:45:57.501Z,98603.14
2023-02-06T12:48:44.571Z,98605.66
2023-02-06T12:51:18.484Z,98606.01
2023-02-06T12:53:55.962Z,98608.55
2023-02-06T12:56:31.027Z,98608.69
2023-02-06T12:59:02.251Z,98606.81
2023-02-06T13:01:52.230Z,98613.24
2023-02-06T13:04:25.388Z,98611.52
2023-02-06T13:07:03.369Z,98613.90
2023-02-06T13:09:36.209Z,98611.83
2023-02-06T13:12:23.079Z,98612.66
2023-02-06T13:14:57.445Z,98616.56
2023-02-06T13:17:58.469Z,98615.02
2023-02-06T13:20:27.272Z,98613.11
2023-02-06T13:23:16.221Z,98612.91
2023-02-06T13:25:44.283Z,98618.66
2023-02-06T13:28:27.709Z,98615.21
2023-02-06T13:30:58.952Z,98614.17
2023-02-06T13:33:58.366Z,98617.55
2023-02-06T13:36:49.258Z,98617.52
2023-02-06T13:39:27.635Z,98619.02
2023-02-06T13:41:58.110Z,98621.55
2023-02-06T13:44:37.811Z,98620.83
2023-02-06T13:47:39.268Z,98621.16
2023-02-06T13:50:30.375Z,98622.30
2023-02-06T13:53:13.236Z,98623.45
2023-02-06T13:56:14.600Z,98626.84
2023-02-06T13:58:52.933Z,98623.91
2023-02-06T14:01:28.396Z,98630.85
2023-02-06T14:03:58.497Z,98631.69
2023-02-06T14:06:56.866Z,98635.05
2023-02-06T14:09:48.481Z,98635.88
2023-02-06T14:12:44.637Z,98635.52
2023-02-06T14:15:45.171Z,98636.48
2023-02-06T14:18:51.132Z,98634.92
2023-02-06T14:21:58.772Z,98635.91
2023-02-06T14:24:46.887Z,98638.27
2023-02-06T14:27:36.810Z,98635.00
2023-02-06T14:30:08.081Z,98636.00
2023-02-06T14:32:57.642Z,98633.42
2023-02-06T14:35:38.132Z,98630.67
2023-02-06T14:38:28.691Z,98630.46
2023-02-06T14:40:59.636Z,98628.40
2023-02-06T14:43:32.282Z,98633.82
2023-02-06T14:46:07.905Z,98631.42
2023-02-06T14:48:52.841Z,98631.39
2023-02-06T14:51:22.683Z,98634.95
2023-02-06T14:53:54.191Z,98635.45
2023-02-06T14:56:31.928Z,98637.63
2023-02-06T14:59:18.115Z,98637.09
2023-02-06T15:01:47.485Z,98638.27
2023-02-06T15:04:26.115Z,98641.98
2023-02-06T15:06:57.764Z,98640.61
2023-02-06T15:09:38.014Z,98645.56
2023-02-06T15:12:21.327Z,98645.55
2023-02-06T15:14:58.841Z,98647.74
2023-02-06T15:17:27.027Z,98646.02
2023-02-06T15:19:55.707Z,98646.36
2023-02-06T15:22:31.041Z,98652.16
2023-02-06T15:25:08.152Z,98655.41
2023-02-06T15:27:38.656Z,98654.22
2023-02-06T15:30:21.642Z,98651.86
2023-02-06T15:32:56.075Z,98651.02
2023-02-06T15:35:28.886Z,98648.46
2023-02-06T15:38:07.502Z,98647.44
2023-02-06T15:40:39.114Z,98647.10
2023-02-06T15:43:07.545Z,98649.83
2023-02-06T15:45:40.565Z,98655.97
2023-02-06T15:48:38.289Z,98658.39
2023-02-06T15:51:31.019Z,98670.17
2023-02-06T15:54:19.162Z,98671.55
2023-02-06T15:56:51.639Z,98673.26
2023-02-06T15:59:24.323Z,98679.06
2023-02-06T16:01:54.952Z,98681.64
2023-02-06T16:04:40.523Z,98687.97
2023-02-06T16:07:17.524Z,98689.86
2023-02-06T16:09:55.396Z,98691.23
2023-02-06T16:12:23.687Z,98692.61
2023-02-06T16:15:00.519Z,98694.01
2023-02-06T16:17:41.254Z,98698.11
2023-02-06T16:20:33.054Z,98699.13
2023-02-06T16:24:06.936Z,98704.42
2023-02-06T16:26:52.518Z,98709.23
2023-02-06T16:29:23.538Z,98708.90
2023-02-06T16:32:01.102Z,98713.37
2023-02-06T16:34:32.689Z,98712.02
2023-02-06T16:37:00.759Z,98709.65
2023-02-06T16:39:28.832Z,98716.84
2023-02-06T16:41:57.010Z,98718.89
2023-02-06T16:44:36.024Z,98723.49
2023-02-06T16:47:12.201Z,98729.14
2023-02-06T16:49:40.374Z,98737.01
2023-02-06T16:52:11.163Z,98737.19
2023-02-06T16:54:39.387Z,98741.48
2023-02-06T16:57:16.672Z,98744.90
2023-02-06T16:59:45.166Z,98747.80
2023-02-06T17:02:14.774Z,98751.08
2023-02-06T17:04:43.189Z,98753.81
2023-02-06T17:07:23.103Z,98754.67
2023-02-06T17:09:52.108Z,98754.02
2023-02-06T17:12:21.711Z,98755.23
2023-02-06T17:14:50.516Z,98753.39
2023-02-06T17:17:21.865Z,98760.20
2023-02-06T17:19:51.992Z,98754.92
2023-02-06T17:22:20.768Z,98748.98
2023-02-06T17:24:49.281Z,98748.14
2023-02-06T17:27:21.144Z,98753.08
2023-02-06T17:29:50.639Z,98748.31
2023-02-06T17:32:22.313Z,98748.35
2023-02-06T17:34:54.354Z,98750.58
2023-02-06T17:37:22.758Z,98748.69
2023-02-06T17:39:52.557Z,98753.80
2023-02-06T17:42:22.126Z,98753.33
2023-02-06T17:44:50.756Z,98754.02
2023-02-06T17:47:19.212Z,98752.69
2023-02-06T17:49:47.316Z,98750.30
2023-02-06T17:52:15.519Z,98752.52
2023-02-06T17:54:44.598Z,98752.05
2023-02-06T17:57:13.699Z,98752.55
2023-02-06T17:59:41.873Z,98753.77
2023-02-06T18:02:14.490Z,98759.06
2023-02-06T18:04:42.727Z,98760.96
2023-02-06T18:07:10.816Z,98759.44
2023-02-06T18:09:41.049Z,98763.52
2023-02-06T18:12:10.449Z,98770.34
2023-02-06T18:14:40.011Z,98770.71
2023-02-06T18:17:08.941Z,98769.17
2023-02-06T18:19:42.308Z,98774.96
2023-02-06T18:22:14.130Z,98777.05
2023-02-06T18:24:43.332Z,98775.67
2023-02-06T18:27:12.519Z,98772.45
2023-02-06T18:29:49.674Z,98771.94
2023-02-06T18:32:19.305Z,98775.35
2023-02-06T18:34:48.249Z,98771.63
2023-02-06T18:37:16.873Z,98776.56
2023-02-06T18:39:44.842Z,98777.11
2023-02-06T18:42:31.875Z,98776.42
2023-02-06T18:44:59.956Z,98772.88
2023-02-06T18:47:28.743Z,98772.70
2023-02-06T18:49:56.774Z,98773.39
2023-02-06T18:52:25.098Z,98771.02
2023-02-06T18:54:53.272Z,98767.61
2023-02-06T18:57:21.472Z,98766.10
2023-02-06T18:59:49.942Z,98762.20
2023-02-06T19:02:18.160Z,98760.66
2023-02-06T19:04:46.396Z,98764.08
2023-02-06T19:07:16.536Z,98756.79
2023-02-06T19:09:44.606Z,98757.45
2023-02-06T19:12:12.859Z,98765.65
2023-02-06T19:14:41.774Z,98769.91
2023-02-06T19:17:09.749Z,98772.29
2023-02-06T19:19:37.838Z,98775.71
2023-02-06T19:22:05.907Z,98779.29
2023-02-06T19:24:33.978Z,98781.84
2023-02-06T19:27:02.267Z,98785.09
2023-02-06T19:29:36.195Z,98786.63
2023-02-06T19:32:06.661Z,98786.11
2023-02-06T19:34:37.803Z,98784.58
2023-02-06T19:37:08.818Z,98788.02
2023-02-06T19:39:40.425Z,98790.22
2023-02-06T19:42:10.795Z,98788.34
2023-02-06T19:44:38.964Z,98786.48
2023-02-06T19:47:07.138Z,98787.02
2023-02-06T19:49:35.514Z,98782.07
2023-02-06T19:52:04.102Z,98782.40
2023-02-06T19:54:32.115Z,98786.33
2023-02-06T19:57:00.741Z,98786.52
2023-02-06T19:59:30.284Z,98792.63
2023-02-06T20:02:01.026Z,98793.83
2023-02-06T20:04:34.398Z,98799.63
2023-02-06T20:07:03.201Z,98801.15
2023-02-06T20:09:31.829Z,98801.33
2023-02-06T20:12:00.382Z,98801.52
2023-02-06T20:14:29.045Z,98806.79
2023-02-06T20:16:57.215Z,98810.52
2023-02-06T20:19:28.876Z,98818.00
2023-02-06T20:21:59.610Z,98819.87
2023-02-06T20:24:30.326Z,98822.43
2023-02-06T20:27:02.041Z,98822.79
2023-02-06T20:29:36.607Z,98826.36
2023-02-06T20:32:06.312Z,98823.80
2023-02-06T20:34:35.591Z,98825.86
2023-02-06T20:37:04.487Z,98824.49
2023-02-06T20:39:33.150Z,98823.46
2023-02-06T20:42:01.368Z,98824.83
2023-02-06T20:44:29.926Z,98825.19
2023-02-06T20:46:58.021Z,98828.74
2023-02-06T20:49:28.655Z,98832.32
2023-02-06T20:51:57.416Z,98832.50
2023-02-06T20:54:26.002Z,98834.88
2023-02-06T20:56:54.398Z,98839.82
2023-02-06T20:59:22.456Z,98842.36
2023-02-06T21:01:50.958Z,98847.47
2023-02-06T21:04:20.587Z,98849.51
2023-02-06T21:06:50.125Z,98853.43
2023-02-06T21:09:19.491Z,98857.33
2023-02-06T21:11:50.119Z,98856.15
2023-02-06T21:14:19.540Z,98858.19
2023-02-06T21:16:49.065Z,98858.18
2023-02-06T21:19:19.983Z,98859.88
2023-02-06T21:21:49.290Z,98859.02
2023-02-06T21:24:18.390Z,98855.80
2023-02-06T21:26:46.866Z,98854.61
2023-02-06T21:29:15.815Z,98846.10
2023-02-06T21:31:46.231Z,98843.38
2023-02-06T21:34:21.477Z,98846.27
2023-02-06T21:36:50.153Z,98849.00
2023-02-06T21:39:21.682Z,98848.14
2023-02-06T21:41:52.014Z,98844.58
2023-02-06T21:44:23.787Z,98850.02
2023-02-06T21:46:53.184Z,98850.17
2023-02-06T21:49:21.864Z,98852.91
2023-02-06T21:51:50.999Z,98853.40
2023-02-06T21:54:19.140Z,98855.78
2023-02-06T21:56:47.232Z,98855.43
2023-02-06T21:59:15.178Z,98858.15
2023-02-06T22:01:43.602Z,98861.39
2023-02-06T22:04:12.362Z,98863.40
2023-02-06T22:06:40.864Z,98863.58
2023-02-06T22:09:15.200Z,98861.88
2023-02-06T22:11:44.191Z,98867.48
2023-02-06T22:14:14.999Z,98871.89
2023-02-06T22:16:43.295Z,98871.88
2023-02-06T22:19:11.355Z,98874.27
2023-02-06T22:21:39.859Z,98876.48
2023-02-06T22:24:10.509Z,98873.92
2023-02-06T22:27:07.006Z,98869.67
2023-02-06T22:29:35.090Z,98868.64
2023-02-06T22:32:04.719Z,98870.69
2023-02-06T22:34:33.290Z,98874.23
2023-02-06T22:37:01.259Z,98874.06
2023-02-06T22:39:29.442Z,98874.39
2023-02-06T22:41:57.518Z,98879.48
2023-02-06T22:44:25.694Z,98881.86
2023-02-06T22:46:53.768Z,98884.57
2023-02-06T22:49:22.507Z,98883.89
2023-02-06T22:51:51.058Z,98883.70
2023-02-06T22:54:19.335Z,98883.54
2023-02-06T22:56:47.406Z,98883.36
2023-02-06T22:59:20.521Z,98877.77
2023-02-06T23:01:50.278Z,98876.22
2023-02-06T23:04:24.014Z,98875.88
2023-02-06T23:06:53.120Z,98873.15
2023-02-06T23:09:30.835Z,98872.80
2023-02-06T23:11:59.726Z,98873.82
2023-02-06T23:14:30.166Z,98885.69
2023-02-06T23:17:00.552Z,98889.24
2023-02-06T23:19:29.274Z,98884.84
2023-02-06T23:21:57.654Z,98884.48
2023-02-06T23:24:25.829Z,98883.79
2023-02-06T23:26:54.663Z,98882.10
2023-02-06T23:29:24.031Z,98880.40
2023-02-06T23:31:52.968Z,98878.87
2023-02-06T23:34:23.873Z,98887.66
2023-02-06T23:36:52.356Z,98889.69
2023-02-06T23:39:20.627Z,98884.43
2023-02-06T23:41:48.710Z,98880.67
2023-02-06T23:44:16.723Z,98878.46
2023-02-06T23:46:44.948Z,98882.51
2023-02-06T23:49:13.139Z,98883.20
2023-02-06T23:51:41.205Z,98878.77
2023-02-06T23:54:09.926Z,98875.69
2023-02-06T23:56:38.300Z,98870.60
2023-02-06T23:59:07.586Z,98865.02
